createdAt,value
2022-09-28T00:01:23.265Z,9.57
2022-09-28T00:03:54.413Z,7.23
2022-09-28T00:06:24.494Z,7.47
2022-09-28T00:08:51.481Z,7.33
2022-09-28T00:11:20.756Z,7.47
2022-09-28T00:13:52.863Z,7.23
2022-09-28T00:16:22.132Z,6.83
2022-09-28T00:18:51.172Z,7.07
2022-09-28T00:21:22.186Z,7.00
2022-09-28T00:24:11.746Z,7.70
2022-09-28T00:26:41.168Z,7.47
2022-09-28T00:29:16.161Z,7.07
2022-09-28T00:31:43.157Z,7.40
2022-09-28T00:34:10.200Z,7.87
2022-09-28T00:36:37.112Z,8.30
2022-09-28T00:39:06.944Z,8.70
2022-09-28T00:41:34.613Z,7.53
2022-09-28T00:44:31.547Z,7.90
2022-09-28T00:47:08.027Z,8.10
2022-09-28T00:49:41.825Z,7.40
2022-09-28T00:52:14.397Z,7.33
2022-09-28T00:54:45.178Z,8.40
2022-09-28T00:57:12.739Z,7.70
2022-09-28T00:59:40.463Z,7.70
2022-09-28T01:02:07.830Z,8.20
2022-09-28T01:04:34.600Z,7.90
2022-09-28T01:07:01.383Z,7.17
2022-09-28T01:09:29.033Z,7.80
2022-09-28T01:11:56.114Z,6.83
2022-09-28T01:14:25.764Z,7.13
2022-09-28T01:17:10.996Z,7.80
2022-09-28T01:20:19.259Z,7.50
2022-09-28T01:23:06.451Z,7.63
2022-09-28T01:25:50.886Z,7.53
2022-09-28T01:28:30.145Z,7.57
2022-09-28T01:31:12.612Z,8.13
2022-09-28T01:33:48.088Z,8.33
2022-09-28T01:36:48.157Z,8.10
2022-09-28T01:39:27.916Z,8.77
2022-09-28T01:42:00.022Z,9.83
2022-09-28T01:44:31.466Z,8.63
2022-09-28T01:47:04.240Z,6.87
2022-09-28T01:49:47.810Z,6.03
2022-09-28T01:52:27.991Z,6.80
2022-09-28T01:54:54.863Z,6.13
2022-09-28T01:57:48.613Z,6.10
2022-09-28T02:00:18.099Z,5.67
2022-09-28T02:03:09.170Z,5.17
2022-09-28T02:05:38.869Z,5.97
2022-09-28T02:08:15.249Z,5.87
2022-09-28T02:10:53.790Z,6.07
2022-09-28T02:13:42.785Z,5.23
2022-09-28T02:16:14.616Z,5.67
2022-09-28T02:18:42.465Z,5.63
2022-09-28T02:21:52.307Z,5.70
2022-09-28T02:24:26.990Z,5.53
2022-09-28T02:26:57.686Z,5.77
2022-09-28T02:29:24.966Z,7.63
2022-09-28T02:31:52.536Z,7.70
2022-09-28T02:34:19.534Z,8.60
2022-09-28T02:36:47.381Z,9.43
2022-09-28T02:39:19.126Z,9.30
2022-09-28T02:42:07.782Z,9.10
2022-09-28T02:44:44.119Z,9.73
2022-09-28T02:47:27.194Z,9.53
2022-09-28T02:50:29.797Z,9.87
2022-09-28T02:53:30.763Z,9.93
2022-09-28T02:56:09.637Z,10.10
2022-09-28T02:58:51.509Z,10.43
2022-09-28T03:02:02.120Z,10.43
2022-09-28T03:04:47.364Z,10.93
2022-09-28T03:07:49.910Z,10.20
2022-09-28T03:10:24.493Z,10.23
2022-09-28T03:12:53.936Z,10.17
2022-09-28T03:15:29.424Z,10.80
2022-09-28T03:17:57.357Z,10.80
2022-09-28T03:20:25.042Z,9.77
2022-09-28T03:23:19.664Z,11.20
2022-09-28T03:25:39.185Z,10.83
2022-09-28T03:28:06.169Z,11.03
2022-09-28T03:30:33.195Z,12.57
2022-09-28T03:33:02.448Z,11.90
2022-09-28T03:35:29.376Z,11.60
2022-09-28T03:37:57.175Z,12.23
2022-09-28T03:40:24.294Z,11.87
2022-09-28T03:42:51.168Z,12.87
2022-09-28T03:45:18.162Z,15.00
2022-09-28T03:47:48.683Z,15.60
2022-09-28T03:50:15.823Z,14.63
2022-09-28T03:52:43.205Z,14.30
2022-09-28T03:55:11.250Z,14.27
2022-09-28T03:57:38.512Z,14.77
2022-09-28T04:00:05.969Z,15.03
2022-09-28T04:02:34.707Z,14.53
2022-09-28T04:05:02.340Z,16.03
2022-09-28T04:07:31.186Z,15.30
2022-09-28T04:09:58.345Z,14.30
2022-09-28T04:12:25.160Z,14.13
2022-09-28T04:14:51.975Z,13.77
2022-09-28T04:17:20.043Z,15.87
2022-09-28T04:19:47.391Z,14.10
2022-09-28T04:22:14.333Z,13.97
2022-09-28T04:24:43.501Z,12.90
2022-09-28T04:27:29.386Z,12.60
2022-09-28T04:29:56.755Z,11.90
2022-09-28T04:32:23.551Z,11.47
2022-09-28T04:34:51.354Z,11.53
2022-09-28T04:37:18.122Z,11.83
2022-09-28T04:39:48.191Z,11.87
2022-09-28T04:42:15.914Z,12.53
2022-09-28T04:44:42.890Z,12.50
2022-09-28T04:47:09.882Z,11.87
2022-09-28T04:49:38.421Z,12.03
2022-09-28T04:52:05.903Z,11.47
2022-09-28T04:54:32.701Z,12.03
2022-09-28T04:56:59.557Z,11.43
2022-09-28T04:59:26.417Z,12.83
2022-09-28T05:01:54.175Z,13.07
2022-09-28T05:04:25.644Z,12.47
2022-09-28T05:06:53.057Z,13.03
2022-09-28T05:09:20.870Z,13.00
2022-09-28T05:11:50.095Z,13.23
2022-09-28T05:14:17.207Z,12.90
2022-09-28T05:16:45.041Z,12.83
2022-09-28T05:19:12.535Z,11.90
2022-09-28T05:21:39.719Z,14.03
2022-09-28T05:24:07.757Z,13.20
2022-09-28T05:26:34.932Z,12.70
2022-09-28T05:29:01.772Z,11.80
2022-09-28T05:31:28.795Z,11.67
2022-09-28T05:33:56.048Z,11.17
2022-09-28T05:36:23.494Z,11.17
2022-09-28T05:38:50.352Z,11.87
2022-09-28T05:41:17.465Z,11.67
2022-09-28T05:43:45.683Z,12.67
2022-09-28T05:46:12.770Z,12.17
2022-09-28T05:48:40.748Z,10.77
2022-09-28T05:51:10.165Z,11.90
2022-09-28T05:53:37.196Z,11.47
2022-09-28T05:56:04.211Z,12.07
2022-09-28T05:58:31.154Z,10.23
2022-09-28T06:00:58.677Z,10.57
2022-09-28T06:03:25.876Z,11.07
2022-09-28T06:05:53.197Z,12.33
2022-09-28T06:08:20.230Z,11.87
2022-09-28T06:10:47.327Z,10.87
2022-09-28T06:13:14.465Z,11.07
2022-09-28T06:15:42.893Z,11.63
2022-09-28T06:18:14.892Z,10.30
2022-09-28T06:20:42.920Z,10.87
2022-09-28T06:23:11.601Z,10.30
2022-09-28T06:25:38.820Z,10.47
2022-09-28T06:28:15.228Z,10.17
2022-09-28T06:30:43.549Z,10.03
2022-09-28T06:33:13.801Z,10.83
2022-09-28T06:35:41.055Z,11.53
2022-09-28T06:38:08.413Z,11.53
2022-09-28T06:40:37.254Z,12.20
2022-09-28T06:43:10.119Z,10.80
2022-09-28T06:45:38.451Z,11.30
2022-09-28T06:48:06.027Z,10.27
2022-09-28T06:50:38.051Z,10.90
2022-09-28T06:53:07.283Z,10.50
2022-09-28T06:55:34.301Z,10.93
2022-09-28T06:58:06.993Z,10.47
2022-09-28T07:00:35.848Z,9.03
2022-09-28T07:03:09.459Z,9.33
2022-09-28T07:05:41.452Z,9.40
2022-09-28T07:08:08.605Z,9.43
2022-09-28T07:10:35.608Z,10.17
2022-09-28T07:13:05.527Z,9.83
2022-09-28T07:15:33.467Z,8.53
2022-09-28T07:18:04.911Z,9.47
2022-09-28T07:20:41.407Z,10.00
2022-09-28T07:23:18.984Z,10.00
2022-09-28T07:25:48.053Z,9.13
2022-09-28T07:28:15.376Z,9.10
2022-09-28T07:30:44.259Z,9.77
2022-09-28T07:33:14.572Z,9.47
2022-09-28T07:35:42.421Z,10.73
2022-09-28T07:38:10.477Z,9.70
2022-09-28T07:40:55.644Z,10.50
2022-09-28T07:43:22.830Z,10.10
2022-09-28T07:45:52.558Z,9.93
2022-09-28T07:48:21.008Z,10.20
2022-09-28T07:50:53.686Z,10.17
2022-09-28T07:53:22.372Z,10.07
2022-09-28T07:55:56.397Z,10.40
2022-09-28T07:58:23.444Z,10.40
2022-09-28T08:00:50.831Z,11.53
2022-09-28T08:03:19.274Z,10.33
2022-09-28T08:05:47.467Z,8.83
2022-09-28T08:08:15.349Z,7.93
2022-09-28T08:10:47.227Z,9.20
2022-09-28T08:13:15.383Z,8.93
2022-09-28T08:15:51.322Z,8.27
2022-09-28T08:18:19.026Z,9.33
2022-09-28T08:21:04.715Z,7.30
2022-09-28T08:23:31.732Z,7.57
2022-09-28T08:25:59.011Z,8.00
2022-09-28T08:28:26.510Z,7.90
2022-09-28T08:30:54.361Z,8.57
2022-09-28T08:33:21.723Z,8.13
2022-09-28T08:35:55.614Z,6.43
2022-09-28T08:38:22.788Z,6.97
2022-09-28T08:41:18.595Z,6.70
2022-09-28T08:43:54.220Z,6.90
2022-09-28T08:46:27.015Z,7.20
2022-09-28T08:52:07.898Z,6.47
2022-09-28T08:54:49.083Z,5.77
2022-09-28T08:57:32.200Z,6.27
2022-09-28T09:00:01.997Z,6.90
2022-09-28T09:02:33.806Z,5.37
2022-09-28T09:05:05.061Z,6.70
2022-09-28T09:07:47.339Z,5.50
2022-09-28T09:10:22.792Z,5.37
2022-09-28T09:13:03.477Z,5.20
2022-09-28T09:15:54.132Z,4.93
2022-09-28T09:18:42.677Z,4.33
2022-09-28T09:21:18.469Z,4.45
2022-09-28T09:24:10.719Z,3.53
2022-09-28T09:26:41.510Z,3.63
2022-09-28T09:29:29.487Z,4.10
2022-09-28T09:32:12.381Z,3.83
2022-09-28T09:35:30.918Z,3.73
2022-09-28T09:38:40.857Z,4.07
2022-09-28T09:41:25.161Z,3.67
2022-09-28T09:44:16.338Z,3.90
2022-09-28T09:47:03.177Z,3.40
2022-09-28T09:49:45.452Z,2.87
2022-09-28T09:52:28.064Z,2.57
2022-09-28T09:55:14.737Z,2.93
2022-09-28T09:58:03.645Z,3.20
2022-09-28T10:00:31.871Z,2.88
2022-09-28T10:03:00.498Z,3.00
2022-09-28T10:05:31.270Z,2.10
2022-09-28T10:08:15.604Z,2.60
2022-09-28T10:11:15.546Z,2.53
2022-09-28T10:13:43.006Z,2.58
2022-09-28T10:16:09.742Z,2.85
2022-09-28T10:18:37.596Z,3.22
2022-09-28T10:21:04.884Z,2.78
2022-09-28T10:23:35.934Z,3.03
2022-09-28T10:26:05.924Z,3.40
2022-09-28T10:28:54.870Z,2.47
2022-09-28T10:31:36.711Z,2.20
2022-09-28T10:34:08.240Z,1.48
2022-09-28T10:36:44.858Z,2.03
2022-09-28T10:39:32.497Z,1.83
2022-09-28T10:42:03.687Z,2.15
2022-09-28T10:44:34.306Z,2.03
2022-09-28T10:47:05.747Z,2.10
2022-09-28T10:49:45.880Z,1.80
2022-09-28T10:52:42.707Z,2.03
2022-09-28T10:55:21.480Z,2.22
2022-09-28T10:57:48.898Z,2.10
2022-09-28T11:00:43.009Z,1.87
2022-09-28T11:03:25.932Z,1.92
2022-09-28T11:06:01.634Z,1.73
2022-09-28T11:08:33.081Z,1.92
2022-09-28T11:11:05.482Z,1.80
2022-09-28T11:13:45.527Z,1.33
2022-09-28T11:16:22.856Z,1.77
2022-09-28T11:18:50.136Z,1.73
2022-09-28T11:21:21.687Z,1.90
2022-09-28T11:24:01.233Z,2.10
2022-09-28T11:26:35.641Z,1.63
2022-09-28T11:29:03.406Z,1.92
2022-09-28T11:31:31.535Z,1.83
2022-09-28T11:34:27.717Z,2.20
2022-09-28T11:37:09.461Z,2.38
2022-09-28T11:39:51.798Z,2.00
2022-09-28T11:42:36.866Z,2.30
2022-09-28T11:45:30.592Z,2.60
2022-09-28T11:48:06.233Z,2.10
2022-09-28T11:50:57.344Z,2.35
2022-09-28T11:53:36.819Z,2.20
2022-09-28T11:56:22.457Z,2.55
2022-09-28T11:59:05.999Z,2.40
2022-09-28T12:01:43.927Z,2.22
2022-09-28T12:04:36.893Z,1.92
2022-09-28T12:07:23.244Z,1.70
2022-09-28T12:10:19.553Z,2.90
2022-09-28T12:13:05.843Z,2.80
2022-09-28T12:16:07.511Z,3.10
2022-09-28T12:18:40.511Z,2.83
2022-09-28T12:21:19.024Z,2.33
2022-09-28T12:23:48.598Z,2.30
2022-09-28T12:26:37.295Z,1.77
2022-09-28T12:29:15.544Z,1.73
2022-09-28T12:32:11.080Z,1.90
2022-09-28T12:34:37.868Z,1.85
2022-09-28T12:37:19.382Z,1.83
2022-09-28T12:40:05.463Z,2.08
2022-09-28T12:43:04.344Z,2.00
2022-09-28T12:46:10.441Z,2.00
2022-09-28T12:49:03.016Z,3.95
2022-09-28T12:51:50.248Z,2.60
2022-09-28T12:54:34.385Z,3.35
2022-09-28T12:57:37.750Z,2.90
2022-09-28T13:00:15.925Z,2.75
2022-09-28T13:03:00.271Z,2.83
2022-09-28T13:05:29.755Z,2.70
2022-09-28T13:08:14.505Z,2.42
2022-09-28T13:10:57.350Z,2.35
2022-09-28T13:13:56.461Z,2.25
2022-09-28T13:16:30.782Z,2.20
2022-09-28T13:19:19.139Z,2.00
2022-09-28T13:21:54.938Z,1.73
2022-09-28T13:24:32.683Z,1.67
2022-09-28T13:27:06.452Z,1.45
2022-09-28T13:29:35.031Z,1.70
2022-09-28T13:32:03.943Z,1.08
2022-09-28T13:34:36.148Z,1.15
2022-09-28T13:37:18.104Z,1.02
2022-09-28T13:39:44.881Z,1.02
2022-09-28T13:42:46.099Z,1.40
2022-09-28T13:45:22.034Z,1.27
2022-09-28T13:47:51.937Z,1.00
2022-09-28T13:50:34.394Z,1.42
2022-09-28T13:53:03.925Z,1.20
2022-09-28T13:55:38.359Z,1.30
2022-09-28T13:58:28.171Z,1.67
2022-09-28T14:01:08.281Z,2.15
2022-09-28T14:03:43.336Z,1.75
2022-09-28T14:06:31.140Z,1.55
2022-09-28T14:09:12.613Z,1.77
2022-09-28T14:11:40.228Z,2.38
2022-09-28T14:14:14.223Z,1.98
2022-09-28T14:16:42.319Z,2.10
2022-09-28T14:19:26.569Z,1.75
2022-09-28T14:22:15.380Z,1.73
2022-09-28T14:24:55.459Z,1.90
2022-09-28T14:27:37.250Z,1.98
2022-09-28T14:30:09.820Z,1.40
2022-09-28T14:32:38.291Z,1.77
2022-09-28T14:35:18.599Z,1.65
2022-09-28T14:38:12.719Z,1.60
2022-09-28T14:41:10.585Z,2.00
2022-09-28T14:43:46.085Z,2.05
2022-09-28T14:46:17.061Z,1.70
2022-09-28T14:49:04.101Z,2.20
2022-09-28T14:51:31.066Z,3.00
2022-09-28T14:54:13.647Z,1.90
2022-09-28T14:57:08.987Z,2.05
2022-09-28T14:59:46.306Z,2.00
2022-09-28T15:02:22.089Z,2.03
2022-09-28T15:05:15.006Z,2.20
2022-09-28T15:07:52.957Z,1.60
2022-09-28T15:10:31.441Z,1.88
2022-09-28T15:13:05.370Z,2.75
2022-09-28T15:15:38.907Z,1.83
2022-09-28T15:18:18.720Z,1.80
2022-09-28T15:20:49.977Z,1.75
2022-09-28T15:23:33.607Z,2.37
2022-09-28T15:26:01.089Z,2.37
2022-09-28T15:28:27.998Z,2.50
2022-09-28T15:31:03.551Z,3.03
2022-09-28T15:33:53.549Z,3.10
2022-09-28T15:36:24.234Z,2.87
2022-09-28T15:39:14.930Z,3.00
2022-09-28T15:41:47.250Z,2.57
2022-09-28T15:44:22.250Z,2.70
2022-09-28T15:46:50.638Z,2.90
2022-09-28T15:49:43.859Z,3.25
2022-09-28T15:52:27.922Z,4.80
2022-09-28T15:54:55.505Z,4.57
2022-09-28T15:57:39.437Z,5.00
2022-09-28T16:00:28.473Z,5.93
2022-09-28T16:03:07.457Z,5.30
2022-09-28T16:05:51.025Z,5.43
2022-09-28T16:08:44.441Z,6.80
2022-09-28T16:11:11.123Z,7.13
2022-09-28T16:13:54.363Z,7.43
2022-09-28T16:16:27.360Z,11.90
2022-09-28T16:18:55.469Z,12.60
2022-09-28T16:21:38.965Z,11.83
2022-09-28T16:24:07.389Z,10.77
2022-09-28T16:26:38.967Z,10.67
2022-09-28T16:29:25.915Z,7.73
2022-09-28T16:31:53.316Z,6.77
2022-09-28T16:34:25.043Z,6.87
2022-09-28T16:36:51.940Z,7.00
2022-09-28T16:39:19.700Z,7.30
2022-09-28T16:41:55.768Z,7.60
2022-09-28T16:44:27.307Z,10.67
2022-09-28T16:46:57.205Z,11.10
2022-09-28T16:49:25.634Z,9.50
2022-09-28T16:51:53.090Z,8.03
2022-09-28T16:54:43.549Z,8.00
2022-09-28T16:57:13.236Z,6.93
2022-09-28T16:59:40.330Z,7.47
2022-09-28T17:02:42.353Z,7.20
2022-09-28T17:05:07.145Z,6.17
2022-09-28T17:07:34.588Z,6.57
2022-09-28T17:10:01.621Z,7.60
2022-09-28T17:12:28.958Z,7.03
2022-09-28T17:14:55.719Z,6.57
2022-09-28T17:17:22.761Z,6.93
2022-09-28T17:19:49.578Z,6.43
2022-09-28T17:22:16.861Z,5.90
2022-09-28T17:24:45.611Z,7.13
2022-09-28T17:27:19.449Z,10.77
2022-09-28T17:29:46.308Z,10.80
2022-09-28T17:32:22.240Z,9.83
2022-09-28T17:35:00.815Z,7.20
2022-09-28T17:37:36.392Z,7.23
2022-09-28T17:40:15.580Z,5.63
2022-09-28T17:42:42.341Z,5.70
2022-09-28T17:45:09.143Z,5.30
2022-09-28T17:47:35.907Z,5.40
2022-09-28T17:50:02.750Z,6.23
2022-09-28T17:52:29.499Z,5.30
2022-09-28T17:54:56.289Z,5.63
2022-09-28T17:57:23.263Z,5.17
2022-09-28T17:59:51.042Z,5.23
2022-09-28T18:02:18.163Z,4.13
2022-09-28T18:04:52.202Z,5.20
2022-09-28T18:07:19.432Z,5.70
2022-09-28T18:09:46.219Z,4.07
2022-09-28T18:12:13.101Z,11.17
2022-09-28T18:14:40.037Z,11.40
2022-09-28T18:17:06.798Z,16.37
2022-09-28T18:19:33.512Z,10.43
2022-09-28T18:22:01.495Z,6.80
2022-09-28T18:24:28.398Z,3.63
2022-09-28T18:26:55.126Z,9.77
2022-09-28T18:29:21.842Z,8.33
2022-09-28T18:31:48.842Z,6.83
2022-09-28T18:34:15.675Z,4.20
2022-09-28T18:36:42.458Z,3.17
2022-09-28T18:39:09.373Z,2.57
2022-09-28T18:41:36.243Z,2.67
2022-09-28T18:44:03.054Z,2.10
2022-09-28T18:46:32.363Z,2.30
2022-09-28T18:48:59.654Z,3.10
2022-09-28T18:51:26.515Z,3.20
2022-09-28T18:53:53.610Z,2.30
2022-09-28T18:56:21.020Z,3.00
2022-09-28T18:58:51.744Z,3.10
2022-09-28T19:01:36.253Z,4.50
2022-09-28T19:04:06.226Z,5.50
2022-09-28T19:06:34.397Z,4.50
2022-09-28T19:09:01.735Z,4.07
2022-09-28T19:11:28.855Z,3.57
2022-09-28T19:13:56.891Z,4.20
2022-09-28T19:16:26.621Z,4.47
2022-09-28T19:18:53.865Z,5.03
2022-09-28T19:21:21.302Z,5.50
2022-09-28T19:23:49.663Z,5.40
2022-09-28T19:26:22.932Z,5.37
2022-09-28T19:28:50.586Z,5.47
2022-09-28T19:31:17.855Z,4.73
2022-09-28T19:33:48.524Z,4.67
2022-09-28T19:36:21.904Z,5.57
2022-09-28T19:38:48.725Z,4.67
2022-09-28T19:41:49.583Z,4.63
2022-09-28T19:44:25.555Z,4.57
2022-09-28T19:47:04.295Z,4.37
2022-09-28T19:49:36.074Z,4.80
2022-09-28T19:52:20.778Z,4.27
2022-09-28T19:54:56.797Z,4.40
2022-09-28T19:57:26.053Z,4.33
2022-09-28T19:59:55.039Z,4.93
2022-09-28T20:02:24.859Z,5.70
2022-09-28T20:04:51.702Z,5.03
2022-09-28T20:07:18.678Z,5.87
2022-09-28T20:09:45.455Z,5.43
2022-09-28T20:12:12.304Z,5.87
2022-09-28T20:14:40.421Z,5.57
2022-09-28T20:17:07.651Z,4.83
2022-09-28T20:19:35.066Z,4.40
2022-09-28T20:22:03.263Z,4.83
2022-09-28T20:24:31.201Z,4.40
2022-09-28T20:26:58.892Z,4.63
2022-09-28T20:29:26.762Z,3.80
2022-09-28T20:31:53.652Z,4.43
2022-09-28T20:34:20.563Z,4.27
2022-09-28T20:36:48.335Z,4.07
2022-09-28T20:39:15.638Z,4.13
2022-09-28T20:41:42.716Z,3.97
2022-09-28T20:44:10.093Z,3.80
2022-09-28T20:46:38.269Z,3.40
2022-09-28T20:49:05.816Z,3.77
2022-09-28T20:51:33.289Z,4.00
2022-09-28T20:54:00.452Z,3.93
2022-09-28T20:56:40.182Z,4.13
2022-09-28T20:59:12.038Z,4.80
2022-09-28T21:01:39.845Z,4.20
2022-09-28T21:04:08.828Z,4.20
2022-09-28T21:06:39.895Z,4.30
2022-09-28T21:09:08.004Z,4.70
2022-09-28T21:11:35.691Z,5.00
2022-09-28T21:14:06.040Z,5.20
2022-09-28T21:16:34.929Z,5.20
2022-09-28T21:19:01.863Z,5.07
2022-09-28T21:21:28.693Z,4.70
2022-09-28T21:23:56.827Z,4.83
2022-09-28T21:26:26.486Z,4.57
2022-09-28T21:28:57.902Z,4.33
2022-09-28T21:31:29.153Z,4.03
2022-09-28T21:33:57.149Z,4.03
2022-09-28T21:36:25.879Z,5.00
2022-09-28T21:38:56.159Z,4.67
2022-09-28T21:41:24.160Z,6.17
2022-09-28T21:43:51.264Z,5.70
2022-09-28T21:46:18.405Z,5.67
2022-09-28T21:48:45.551Z,6.07
2022-09-28T21:51:15.783Z,5.90
2022-09-28T21:53:43.017Z,5.97
2022-09-28T21:56:12.116Z,6.57
2022-09-28T21:58:40.149Z,7.40
2022-09-28T22:01:09.056Z,6.37
2022-09-28T22:03:36.800Z,7.73
2022-09-28T22:06:05.104Z,6.30
2022-09-28T22:08:32.458Z,5.60
2022-09-28T22:11:16.694Z,5.37
2022-09-28T22:13:47.000Z,5.43
2022-09-28T22:16:17.197Z,5.30
2022-09-28T22:18:44.949Z,5.20
2022-09-28T22:21:25.942Z,4.77
2022-09-28T22:23:53.497Z,5.13
2022-09-28T22:26:24.786Z,4.73
2022-09-28T22:29:00.730Z,4.87
2022-09-28T22:31:30.850Z,4.60
2022-09-28T22:33:58.459Z,4.80
2022-09-28T22:36:26.136Z,4.40
2022-09-28T22:38:54.761Z,5.00
2022-09-28T22:41:21.816Z,4.97
2022-09-28T22:43:51.130Z,5.40
2022-09-28T22:46:20.508Z,5.00
2022-09-28T22:48:49.218Z,5.57
2022-09-28T22:51:16.786Z,5.73
2022-09-28T22:53:45.989Z,5.13
2022-09-28T22:56:17.640Z,4.87
2022-09-28T22:58:46.250Z,5.27
2022-09-28T23:01:22.241Z,5.83
2022-09-28T23:03:50.292Z,5.03
2022-09-28T23:06:20.211Z,5.73
2022-09-28T23:08:49.369Z,5.73
2022-09-28T23:11:16.883Z,5.67
2022-09-28T23:13:48.486Z,5.67
2022-09-28T23:16:15.592Z,5.63
2022-09-28T23:18:42.718Z,5.23
2022-09-28T23:21:15.662Z,6.23
2022-09-28T23:23:46.352Z,5.47
2022-09-28T23:26:22.577Z,6.23
2022-09-28T23:28:49.740Z,5.87
2022-09-28T23:31:25.163Z,7.20
2022-09-28T23:33:56.539Z,6.97
2022-09-28T23:36:23.670Z,8.07
2022-09-28T23:38:50.437Z,7.23
2022-09-28T23:41:17.457Z,7.80
2022-09-28T23:43:44.207Z,7.73
2022-09-28T23:46:11.227Z,9.33
2022-09-28T23:48:38.731Z,8.50
2022-09-28T23:51:05.882Z,9.10
2022-09-28T23:53:32.822Z,9.97
2022-09-28T23:56:00.490Z,8.90
2022-09-28T23:58:28.236Z,9.53
